createdAt,value
2023-09-30T00:00:18.339Z,16.67
2023-09-30T00:01:20.020Z,16.62
2023-09-30T00:02:21.764Z,16.59
2023-09-30T00:03:23.693Z,16.63
2023-09-30T00:04:25.732Z,16.69
2023-09-30T00:05:27.583Z,16.68
2023-09-30T00:06:29.274Z,16.68
2023-09-30T00:07:30.875Z,16.65
2023-09-30T00:08:32.497Z,16.58
2023-09-30T00:09:34.098Z,16.58
2023-09-30T00:10:35.672Z,16.57
2023-09-30T00:11:37.252Z,16.61
2023-09-30T00:12:40.266Z,16.65
2023-09-30T00:13:41.925Z,16.55
2023-09-30T00:14:43.823Z,16.48
2023-09-30T00:15:45.439Z,16.42
2023-09-30T00:16:47.124Z,16.48
2023-09-30T00:17:48.885Z,16.43
2023-09-30T00:18:50.551Z,16.42
2023-09-30T00:19:52.182Z,16.40
2023-09-30T00:20:53.870Z,16.39
2023-09-30T00:21:56.268Z,16.40
2023-09-30T00:22:58.036Z,16.38
2023-09-30T00:23:59.681Z,16.41
2023-09-30T00:25:01.249Z,16.47
2023-09-30T00:26:02.837Z,16.35
2023-09-30T00:27:04.491Z,16.29
2023-09-30T00:28:07.529Z,16.25
2023-09-30T00:29:09.193Z,16.28
2023-09-30T00:30:11.403Z,16.22
2023-09-30T00:31:13.083Z,16.20
2023-09-30T00:32:14.785Z,16.12
2023-09-30T00:33:16.616Z,16.05
2023-09-30T00:34:18.337Z,16.04
2023-09-30T00:35:19.966Z,15.96
2023-09-30T00:36:21.541Z,15.89
2023-09-30T00:37:23.275Z,15.88
2023-09-30T00:38:25.075Z,15.80
2023-09-30T00:39:26.769Z,15.70
2023-09-30T00:40:28.372Z,15.72
2023-09-30T00:41:30.203Z,15.72
2023-09-30T00:42:31.891Z,15.75
2023-09-30T00:43:35.763Z,15.73
2023-09-30T00:44:37.291Z,15.55
2023-09-30T00:45:39.050Z,15.53
2023-09-30T00:46:41.723Z,15.48
2023-09-30T00:47:44.851Z,15.62
2023-09-30T00:48:46.855Z,15.49
2023-09-30T00:49:50.681Z,15.43
2023-09-30T00:50:52.360Z,15.43
2023-09-30T00:51:55.986Z,15.43
2023-09-30T00:52:57.624Z,15.46
2023-09-30T00:54:00.968Z,15.42
2023-09-30T00:55:02.981Z,15.25
2023-09-30T00:56:06.408Z,15.20
2023-09-30T00:57:08.164Z,15.24
2023-09-30T00:58:09.933Z,15.19
2023-09-30T00:59:13.784Z,15.34
2023-09-30T01:00:16.380Z,15.17
2023-09-30T01:01:19.193Z,15.17
2023-09-30T01:02:20.862Z,15.24
2023-09-30T01:03:23.484Z,15.12
2023-09-30T01:04:26.066Z,14.99
2023-09-30T01:05:27.971Z,15.04
2023-09-30T01:06:29.586Z,15.11
2023-09-30T01:07:31.292Z,15.11
2023-09-30T01:08:33.666Z,14.94
2023-09-30T01:09:35.504Z,14.97
2023-09-30T01:10:37.185Z,14.96
2023-09-30T01:11:39.998Z,14.85
2023-09-30T01:12:41.647Z,14.89
2023-09-30T01:13:43.336Z,14.85
2023-09-30T01:14:46.276Z,14.81
2023-09-30T01:15:47.876Z,14.88
2023-09-30T01:16:49.564Z,14.88
2023-09-30T01:17:51.251Z,14.93
2023-09-30T01:18:52.932Z,14.89
2023-09-30T01:19:54.502Z,14.85
2023-09-30T01:20:57.230Z,14.85
2023-09-30T01:22:00.470Z,14.85
2023-09-30T01:23:04.532Z,14.80
2023-09-30T01:24:06.480Z,14.91
2023-09-30T01:25:09.678Z,15.04
2023-09-30T01:26:12.491Z,15.01
2023-09-30T01:27:14.323Z,14.81
2023-09-30T01:28:15.974Z,14.76
2023-09-30T01:29:18.806Z,14.68
2023-09-30T01:30:20.858Z,14.80
2023-09-30T01:31:22.570Z,14.73
2023-09-30T01:32:24.180Z,14.81
2023-09-30T01:33:25.819Z,14.68
2023-09-30T01:34:27.469Z,14.58
2023-09-30T01:35:29.113Z,14.49
2023-09-30T01:36:31.184Z,14.48
2023-09-30T01:37:34.310Z,14.48
2023-09-30T01:38:35.865Z,14.59
2023-09-30T01:39:37.581Z,14.56
2023-09-30T01:40:39.246Z,14.48
2023-09-30T01:41:41.602Z,14.43
2023-09-30T01:42:43.234Z,14.35
2023-09-30T01:43:45.000Z,14.33
2023-09-30T01:44:46.728Z,14.50
2023-09-30T01:45:48.396Z,14.57
2023-09-30T01:46:50.123Z,14.44
2023-09-30T01:47:51.709Z,14.39
2023-09-30T01:48:53.385Z,14.52
2023-09-30T01:49:54.986Z,14.36
2023-09-30T01:50:56.687Z,14.42
2023-09-30T01:51:58.268Z,14.17
2023-09-30T01:53:02.318Z,14.05
2023-09-30T01:54:04.327Z,14.04
2023-09-30T01:55:06.465Z,14.00
2023-09-30T01:56:08.054Z,13.89
2023-09-30T01:57:11.359Z,13.88
2023-09-30T01:58:13.004Z,13.97
2023-09-30T01:59:14.672Z,13.96
2023-09-30T02:00:16.528Z,13.98
2023-09-30T02:01:18.248Z,13.83
2023-09-30T02:02:20.008Z,13.80
2023-09-30T02:03:22.154Z,13.74
2023-09-30T02:04:23.938Z,13.80
2023-09-30T02:05:25.746Z,13.86
2023-09-30T02:06:27.338Z,13.83
2023-09-30T02:07:28.960Z,13.87
2023-09-30T02:08:31.851Z,13.79
2023-09-30T02:09:33.455Z,13.82
2023-09-30T02:10:37.966Z,13.68
2023-09-30T02:11:39.574Z,13.70
2023-09-30T02:12:41.292Z,13.87
2023-09-30T02:13:45.648Z,13.99
2023-09-30T02:14:47.262Z,13.94
2023-09-30T02:15:49.132Z,13.90
2023-09-30T02:16:50.845Z,13.91
2023-09-30T02:17:52.516Z,13.69
2023-09-30T02:18:54.205Z,13.66
2023-09-30T02:19:55.949Z,13.86
2023-09-30T02:20:57.645Z,13.72
2023-09-30T02:21:59.291Z,13.75
2023-09-30T02:23:00.960Z,13.84
2023-09-30T02:24:04.262Z,13.64
2023-09-30T02:25:06.419Z,13.60
2023-09-30T02:26:08.169Z,13.54
2023-09-30T02:27:09.767Z,13.52
2023-09-30T02:28:11.548Z,13.60
2023-09-30T02:29:13.162Z,13.58
2023-09-30T02:30:15.514Z,13.43
2023-09-30T02:31:17.698Z,13.37
2023-09-30T02:32:19.330Z,13.54
2023-09-30T02:33:20.987Z,13.73
2023-09-30T02:34:22.690Z,13.58
2023-09-30T02:35:24.743Z,13.38
2023-09-30T02:36:27.272Z,13.39
2023-09-30T02:37:28.925Z,13.57
2023-09-30T02:38:30.513Z,13.49
2023-09-30T02:39:33.500Z,13.53
2023-09-30T02:40:35.179Z,13.55
2023-09-30T02:41:36.941Z,13.44
2023-09-30T02:42:38.951Z,13.35
2023-09-30T02:43:40.685Z,13.40
2023-09-30T02:44:42.301Z,13.33
2023-09-30T02:45:45.186Z,13.51
2023-09-30T02:46:46.944Z,13.45
2023-09-30T02:47:48.780Z,13.45
2023-09-30T02:48:52.244Z,13.42
2023-09-30T02:49:53.797Z,13.46
2023-09-30T02:50:55.387Z,13.54
2023-09-30T02:51:57.077Z,13.51
2023-09-30T02:52:58.716Z,13.59
2023-09-30T02:54:00.417Z,13.48
2023-09-30T02:55:04.250Z,13.28
2023-09-30T02:56:05.777Z,13.50
2023-09-30T02:57:07.421Z,13.33
2023-09-30T02:58:09.373Z,13.29
2023-09-30T02:59:10.952Z,13.23
2023-09-30T03:00:13.275Z,13.12
2023-09-30T03:01:18.040Z,13.17
2023-09-30T03:02:19.786Z,13.13
2023-09-30T03:03:21.428Z,13.31
2023-09-30T03:04:23.133Z,13.48
2023-09-30T03:05:25.024Z,13.42
2023-09-30T03:06:26.722Z,13.44
2023-09-30T03:07:31.069Z,13.37
2023-09-30T03:08:33.051Z,13.20
2023-09-30T03:09:34.750Z,13.25
2023-09-30T03:10:37.787Z,13.17
2023-09-30T03:11:39.445Z,13.14
2023-09-30T03:12:41.147Z,13.04
2023-09-30T03:13:43.039Z,13.24
2023-09-30T03:14:46.998Z,13.12
2023-09-30T03:15:48.749Z,13.14
2023-09-30T03:16:50.429Z,13.08
2023-09-30T03:17:53.803Z,13.09
2023-09-30T03:18:55.957Z,13.08
2023-09-30T03:19:57.617Z,13.14
2023-09-30T03:21:01.260Z,13.03
2023-09-30T03:22:02.887Z,12.88
2023-09-30T03:23:04.478Z,13.06
2023-09-30T03:24:06.839Z,12.87
2023-09-30T03:25:09.721Z,12.82
2023-09-30T03:26:12.625Z,12.92
2023-09-30T03:27:14.203Z,12.88
2023-09-30T03:28:15.872Z,12.90
2023-09-30T03:29:17.483Z,12.84
2023-09-30T03:30:19.353Z,12.80
2023-09-30T03:31:21.111Z,12.94
2023-09-30T03:32:22.832Z,12.92
2023-09-30T03:33:24.498Z,12.92
2023-09-30T03:34:26.304Z,12.80
2023-09-30T03:35:27.944Z,12.76
2023-09-30T03:36:29.667Z,12.98
2023-09-30T03:37:32.348Z,12.99
2023-09-30T03:38:33.932Z,12.91
2023-09-30T03:39:35.646Z,12.92
2023-09-30T03:40:37.366Z,12.80
2023-09-30T03:41:40.342Z,12.82
2023-09-30T03:42:42.434Z,12.66
2023-09-30T03:43:44.122Z,12.59
2023-09-30T03:44:45.713Z,12.66
2023-09-30T03:45:47.368Z,12.73
2023-09-30T03:46:49.002Z,12.82
2023-09-30T03:47:50.830Z,12.88
2023-09-30T03:48:52.573Z,12.83
2023-09-30T03:49:54.254Z,12.70
2023-09-30T03:50:55.854Z,12.56
2023-09-30T03:51:57.414Z,12.53
2023-09-30T03:53:02.545Z,12.53
2023-09-30T03:54:04.669Z,12.51
2023-09-30T03:55:06.972Z,12.51
2023-09-30T03:56:09.244Z,12.62
2023-09-30T03:57:12.237Z,12.56
2023-09-30T03:58:13.882Z,12.46
2023-09-30T03:59:15.693Z,12.64
2023-09-30T04:00:17.967Z,12.52
2023-09-30T04:01:19.597Z,12.40
2023-09-30T04:02:21.212Z,12.50
2023-09-30T04:03:22.900Z,12.57
2023-09-30T04:04:24.681Z,12.61
2023-09-30T04:05:26.873Z,12.39
2023-09-30T04:06:28.631Z,12.28
2023-09-30T04:07:30.330Z,12.22
2023-09-30T04:08:32.063Z,12.17
2023-09-30T04:09:33.897Z,12.30
2023-09-30T04:10:35.577Z,12.23
2023-09-30T04:11:37.524Z,12.19
2023-09-30T04:12:40.456Z,12.14
2023-09-30T04:13:42.103Z,12.30
2023-09-30T04:14:43.755Z,12.28
2023-09-30T04:15:46.616Z,12.43
2023-09-30T04:16:50.262Z,12.27
2023-09-30T04:17:51.991Z,12.20
2023-09-30T04:18:53.770Z,12.30
2023-09-30T04:19:55.369Z,12.25
2023-09-30T04:20:57.010Z,12.48
2023-09-30T04:21:58.610Z,12.44
2023-09-30T04:23:00.209Z,12.21
2023-09-30T04:24:02.084Z,12.13
2023-09-30T04:25:04.050Z,12.13
2023-09-30T04:26:05.692Z,12.03
2023-09-30T04:27:07.370Z,12.06
2023-09-30T04:28:10.354Z,12.09
2023-09-30T04:29:11.986Z,11.98
2023-09-30T04:30:14.968Z,11.91
2023-09-30T04:31:16.717Z,12.13
2023-09-30T04:32:18.521Z,12.03
2023-09-30T04:33:20.248Z,11.81
2023-09-30T04:34:21.866Z,11.97
2023-09-30T04:35:23.724Z,11.83
2023-09-30T04:36:25.396Z,11.75
2023-09-30T04:37:27.012Z,11.74
2023-09-30T04:38:28.594Z,11.80
2023-09-30T04:39:30.261Z,11.99
2023-09-30T04:40:31.906Z,11.86
2023-09-30T04:41:33.695Z,11.81
2023-09-30T04:42:35.375Z,11.75
2023-09-30T04:43:38.519Z,11.76
2023-09-30T04:44:40.232Z,11.88
2023-09-30T04:45:41.923Z,12.06
2023-09-30T04:46:43.558Z,12.13
2023-09-30T04:47:45.232Z,11.92
2023-09-30T04:48:47.022Z,11.82
2023-09-30T04:49:48.677Z,11.89
2023-09-30T04:50:50.313Z,11.93
2023-09-30T04:51:51.912Z,11.95
2023-09-30T04:52:53.906Z,11.87
2023-09-30T04:53:55.778Z,12.01
2023-09-30T04:54:57.755Z,12.14
2023-09-30T04:55:59.331Z,12.10
2023-09-30T04:57:00.896Z,12.01
2023-09-30T04:58:02.642Z,11.99
2023-09-30T04:59:05.620Z,11.96
2023-09-30T05:00:08.821Z,11.84
2023-09-30T05:01:10.623Z,11.87
2023-09-30T05:02:12.348Z,11.95
2023-09-30T05:03:14.105Z,11.95
2023-09-30T05:04:15.950Z,11.91
2023-09-30T05:05:17.627Z,11.87
2023-09-30T05:06:19.358Z,11.84
2023-09-30T05:07:21.069Z,11.86
2023-09-30T05:08:25.926Z,11.76
2023-09-30T05:09:27.560Z,11.54
2023-09-30T05:10:29.113Z,11.48
2023-09-30T05:11:30.670Z,11.56
2023-09-30T05:12:32.478Z,11.55
2023-09-30T05:13:34.179Z,11.54
2023-09-30T05:14:37.541Z,11.65
2023-09-30T05:15:39.366Z,11.64
2023-09-30T05:16:41.283Z,11.72
2023-09-30T05:17:43.131Z,11.60
2023-09-30T05:18:44.837Z,11.68
2023-09-30T05:19:46.455Z,11.68
2023-09-30T05:20:50.703Z,11.59
2023-09-30T05:21:52.367Z,11.56
2023-09-30T05:22:56.427Z,11.72
2023-09-30T05:23:58.204Z,11.60
2023-09-30T05:25:00.051Z,11.60
2023-09-30T05:26:01.722Z,11.54
2023-09-30T05:27:03.422Z,11.42
2023-09-30T05:28:05.199Z,11.50
2023-09-30T05:29:06.821Z,11.44
2023-09-30T05:30:10.930Z,11.48
2023-09-30T05:31:12.690Z,11.44
2023-09-30T05:32:14.343Z,11.46
2023-09-30T05:33:16.004Z,11.46
2023-09-30T05:34:17.683Z,11.43
2023-09-30T05:35:19.395Z,11.63
2023-09-30T05:36:22.552Z,11.49
2023-09-30T05:37:24.886Z,11.40
2023-09-30T05:38:26.480Z,11.47
2023-09-30T05:39:28.158Z,11.37
2023-09-30T05:40:32.410Z,11.47
2023-09-30T05:41:33.963Z,11.49
2023-09-30T05:42:35.659Z,11.52
2023-09-30T05:43:37.332Z,11.46
2023-09-30T05:44:38.990Z,11.46
2023-09-30T05:45:42.015Z,11.51
2023-09-30T05:46:43.628Z,11.53
2023-09-30T05:47:45.284Z,11.54
2023-09-30T05:48:47.005Z,11.47
2023-09-30T05:49:48.748Z,11.61
2023-09-30T05:50:50.659Z,11.53
2023-09-30T05:51:52.296Z,11.66
2023-09-30T05:52:54.900Z,11.62
2023-09-30T05:53:56.587Z,11.65
2023-09-30T05:54:58.301Z,11.65
2023-09-30T05:56:02.005Z,11.78
2023-09-30T05:57:05.116Z,11.78
2023-09-30T05:58:06.795Z,11.86
2023-09-30T05:59:08.413Z,11.79
2023-09-30T06:00:13.813Z,11.87
2023-09-30T06:01:16.890Z,11.71
2023-09-30T06:02:18.526Z,11.70
2023-09-30T06:03:20.498Z,11.72
2023-09-30T06:04:22.356Z,11.64
2023-09-30T06:05:24.085Z,11.63
2023-09-30T06:06:25.662Z,11.65
2023-09-30T06:07:27.333Z,11.77
2023-09-30T06:08:28.934Z,11.73
2023-09-30T06:09:30.678Z,11.81
2023-09-30T06:10:32.450Z,11.82
2023-09-30T06:11:34.170Z,11.81
2023-09-30T06:12:35.851Z,11.81
2023-09-30T06:13:37.547Z,11.94
2023-09-30T06:14:39.356Z,11.89
2023-09-30T06:15:42.242Z,11.97
2023-09-30T06:16:45.297Z,12.01
2023-09-30T06:17:47.173Z,11.97
2023-09-30T06:18:48.840Z,12.07
2023-09-30T06:19:50.445Z,12.24
2023-09-30T06:20:52.024Z,12.01
2023-09-30T06:21:53.887Z,12.00
2023-09-30T06:22:55.675Z,12.10
2023-09-30T06:23:57.409Z,12.12
2023-09-30T06:24:59.013Z,12.21
2023-09-30T06:26:00.859Z,12.13
2023-09-30T06:27:02.531Z,12.07
2023-09-30T06:28:04.769Z,12.09
2023-09-30T06:29:06.366Z,12.22
2023-09-30T06:30:08.987Z,12.16
2023-09-30T06:31:11.456Z,12.09
2023-09-30T06:32:14.485Z,12.08
2023-09-30T06:33:16.165Z,12.16
2023-09-30T06:34:17.884Z,12.10
2023-09-30T06:35:23.390Z,12.07
2023-09-30T06:36:25.559Z,12.33
2023-09-30T06:37:27.151Z,12.26
2023-09-30T06:38:28.982Z,12.35
2023-09-30T06:39:30.739Z,12.45
2023-09-30T06:40:32.762Z,12.42
2023-09-30T06:41:34.829Z,12.47
2023-09-30T06:42:37.424Z,12.30
2023-09-30T06:43:39.934Z,12.47
2023-09-30T06:44:41.521Z,12.38
2023-09-30T06:45:43.752Z,12.34
2023-09-30T06:46:45.608Z,12.30
2023-09-30T06:47:48.764Z,12.36
2023-09-30T06:48:50.590Z,12.41
2023-09-30T06:49:52.233Z,12.44
2023-09-30T06:50:53.894Z,12.44
2023-09-30T06:51:55.562Z,12.48
2023-09-30T06:52:57.319Z,12.34
2023-09-30T06:53:59.035Z,12.29
2023-09-30T06:55:00.613Z,12.45
2023-09-30T06:56:06.041Z,12.60
2023-09-30T06:57:07.700Z,12.64
2023-09-30T06:58:09.268Z,12.58
2023-09-30T06:59:10.866Z,12.53
2023-09-30T07:00:15.085Z,12.64
2023-09-30T07:01:17.557Z,12.63
2023-09-30T07:02:19.289Z,12.66
2023-09-30T07:03:26.210Z,12.71
2023-09-30T07:04:29.959Z,12.62
2023-09-30T07:05:32.037Z,12.60
2023-09-30T07:06:33.760Z,12.84
2023-09-30T07:07:35.475Z,12.83
2023-09-30T07:08:37.118Z,13.06
2023-09-30T07:09:38.716Z,13.12
2023-09-30T07:10:40.534Z,13.16
2023-09-30T07:11:42.142Z,13.05
2023-09-30T07:12:43.768Z,12.98
2023-09-30T07:13:45.456Z,13.19
2023-09-30T07:14:47.086Z,13.03
2023-09-30T07:15:51.234Z,13.08
2023-09-30T07:16:52.957Z,13.20
2023-09-30T07:17:54.616Z,13.32
2023-09-30T07:18:57.989Z,13.58
2023-09-30T07:19:59.945Z,13.62
2023-09-30T07:21:01.601Z,13.46
2023-09-30T07:22:05.380Z,13.54
2023-09-30T07:23:18.832Z,13.44
2023-09-30T07:24:23.969Z,13.33
2023-09-30T07:25:27.100Z,13.23
2023-09-30T07:26:28.754Z,13.24
2023-09-30T07:27:30.432Z,13.44
2023-09-30T07:28:32.115Z,13.52
2023-09-30T07:29:33.800Z,13.41
2023-09-30T07:30:35.876Z,13.33
2023-09-30T07:31:37.893Z,13.27
2023-09-30T07:32:39.741Z,13.38
2023-09-30T07:33:41.560Z,13.41
2023-09-30T07:34:45.152Z,13.68
2023-09-30T07:35:46.770Z,13.64
2023-09-30T07:36:48.472Z,13.73
2023-09-30T07:37:50.567Z,13.65
2023-09-30T07:38:52.175Z,13.77
2023-09-30T07:39:53.911Z,13.79
2023-09-30T07:40:55.577Z,13.88
2023-09-30T07:41:57.251Z,13.88
2023-09-30T07:42:58.946Z,13.90
2023-09-30T07:44:00.614Z,13.90
2023-09-30T07:45:02.300Z,13.77
2023-09-30T07:46:07.037Z,13.78
2023-09-30T07:47:08.723Z,13.96
2023-09-30T07:48:10.834Z,14.01
2023-09-30T07:49:12.466Z,13.89
2023-09-30T07:50:15.543Z,13.93
2023-09-30T07:51:17.169Z,13.98
2023-09-30T07:52:18.905Z,14.03
2023-09-30T07:53:20.508Z,13.93
2023-09-30T07:54:31.302Z,14.16
2023-09-30T07:55:33.874Z,13.90
2023-09-30T07:56:35.483Z,13.93
2023-09-30T07:57:38.070Z,14.05
2023-09-30T07:58:39.877Z,14.20
2023-09-30T07:59:41.453Z,14.28
2023-09-30T08:00:45.582Z,14.07
2023-09-30T08:01:49.083Z,14.09
2023-09-30T08:02:50.743Z,14.28
2023-09-30T08:03:52.594Z,14.23
2023-09-30T08:04:54.592Z,14.41
2023-09-30T08:05:57.664Z,14.33
2023-09-30T08:06:59.431Z,14.54
2023-09-30T08:08:03.231Z,14.22
2023-09-30T08:09:04.833Z,14.43
2023-09-30T08:10:07.535Z,14.46
2023-09-30T08:11:09.257Z,14.55
2023-09-30T08:12:10.881Z,14.51
2023-09-30T08:13:12.541Z,14.37
2023-09-30T08:14:14.137Z,14.40
2023-09-30T08:15:16.061Z,14.38
2023-09-30T08:16:19.906Z,14.49
2023-09-30T08:17:23.190Z,14.52
2023-09-30T08:18:24.894Z,14.55
2023-09-30T08:19:26.611Z,14.45
2023-09-30T08:20:28.242Z,14.37
2023-09-30T08:21:31.638Z,14.47
2023-09-30T08:22:33.344Z,14.56
2023-09-30T08:23:34.911Z,14.56
2023-09-30T08:24:36.698Z,14.51
2023-09-30T08:25:38.597Z,14.58
2023-09-30T08:26:41.610Z,14.61
2023-09-30T08:27:43.621Z,14.77
2023-09-30T08:28:45.414Z,14.76
2023-09-30T08:29:47.099Z,14.73
2023-09-30T08:30:48.789Z,14.82
2023-09-30T08:31:50.539Z,14.60
2023-09-30T08:32:52.246Z,14.58
2023-09-30T08:33:54.012Z,14.85
2023-09-30T08:34:55.630Z,14.81
2023-09-30T08:35:57.244Z,14.69
2023-09-30T08:37:00.264Z,14.79
2023-09-30T08:38:01.903Z,14.49
2023-09-30T08:39:03.802Z,14.53
2023-09-30T08:40:06.923Z,14.53
2023-09-30T08:41:08.951Z,14.45
2023-09-30T08:42:11.847Z,14.56
2023-09-30T08:43:15.514Z,14.57
2023-09-30T08:44:17.312Z,14.56
2023-09-30T08:45:20.196Z,14.59
2023-09-30T08:46:22.061Z,14.58
2023-09-30T08:47:27.198Z,14.48
2023-09-30T08:48:29.578Z,14.65
2023-09-30T08:49:35.163Z,14.79
2023-09-30T08:50:40.034Z,14.97
2023-09-30T08:51:42.005Z,14.87
2023-09-30T08:52:46.065Z,15.04
2023-09-30T08:53:47.788Z,14.82
2023-09-30T08:54:49.568Z,14.73
2023-09-30T08:55:54.917Z,14.75
2023-09-30T08:56:56.847Z,14.67
2023-09-30T08:58:01.231Z,14.83
2023-09-30T08:59:05.848Z,15.03
2023-09-30T09:00:09.111Z,15.07
2023-09-30T09:01:12.106Z,15.06
2023-09-30T09:02:13.784Z,15.18
2023-09-30T09:03:15.755Z,15.27
2023-09-30T09:04:18.679Z,15.23
2023-09-30T09:05:20.445Z,15.09
2023-09-30T09:06:22.459Z,15.22
2023-09-30T09:07:25.015Z,15.20
2023-09-30T09:08:28.187Z,15.33
2023-09-30T09:09:29.946Z,15.32
2023-09-30T09:10:31.525Z,15.46
2023-09-30T09:11:38.225Z,15.69
2023-09-30T09:12:40.875Z,15.83
2023-09-30T09:13:50.178Z,15.91
2023-09-30T09:14:53.825Z,16.12
2023-09-30T09:16:09.533Z,16.38
2023-09-30T09:17:12.971Z,16.13
2023-09-30T09:18:32.458Z,16.07
2023-09-30T09:19:34.132Z,16.12
2023-09-30T09:20:35.681Z,16.25
2023-09-30T09:21:37.319Z,16.36
2023-09-30T09:22:39.625Z,16.27
2023-09-30T09:23:43.553Z,16.03
2023-09-30T09:24:45.318Z,15.98
2023-09-30T09:25:50.561Z,16.19
2023-09-30T09:26:52.179Z,16.16
2023-09-30T09:27:54.765Z,16.19
2023-09-30T09:28:58.151Z,16.38
2023-09-30T09:30:15.381Z,16.00
2023-09-30T09:31:21.357Z,16.16
2023-09-30T09:32:23.071Z,16.27
2023-09-30T09:33:36.416Z,16.54
2023-09-30T09:34:38.445Z,16.49
2023-09-30T09:35:40.086Z,16.50
2023-09-30T09:36:43.096Z,16.56
2023-09-30T09:37:54.778Z,16.75
2023-09-30T09:38:57.908Z,16.78
2023-09-30T09:39:59.763Z,16.90
2023-09-30T09:41:01.457Z,16.89
2023-09-30T09:42:03.161Z,16.80
2023-09-30T09:43:06.133Z,16.66
2023-09-30T09:44:08.110Z,16.41
2023-09-30T09:45:11.023Z,16.55
2023-09-30T09:46:12.743Z,16.71
2023-09-30T09:47:15.197Z,16.87
2023-09-30T09:48:17.937Z,16.99
2023-09-30T09:49:20.695Z,17.11
2023-09-30T09:50:23.797Z,16.82
2023-09-30T09:51:25.823Z,16.77
2023-09-30T09:52:29.278Z,16.93
2023-09-30T09:53:31.652Z,16.96
2023-09-30T09:54:34.973Z,16.80
2023-09-30T09:55:37.753Z,16.93
2023-09-30T09:56:39.947Z,17.29
2023-09-30T09:57:42.515Z,17.46
2023-09-30T09:58:53.645Z,17.54
2023-09-30T09:59:57.258Z,17.41
2023-09-30T10:01:02.158Z,17.09
2023-09-30T10:02:10.771Z,17.10
2023-09-30T10:03:12.441Z,16.95
2023-09-30T10:04:14.327Z,16.90
2023-09-30T10:05:20.112Z,16.94
2023-09-30T10:06:21.826Z,16.94
2023-09-30T10:07:27.122Z,17.14
2023-09-30T10:08:34.463Z,17.13
2023-09-30T10:09:38.883Z,17.40
2023-09-30T10:10:40.881Z,17.27
2023-09-30T10:11:43.805Z,17.09
2023-09-30T10:12:45.561Z,17.02
2023-09-30T10:13:57.313Z,17.33
2023-09-30T10:14:58.923Z,17.48
2023-09-30T10:16:00.555Z,17.59
2023-09-30T10:17:02.383Z,17.81
2023-09-30T10:18:05.529Z,17.83
2023-09-30T10:19:10.333Z,18.16
2023-09-30T10:20:11.980Z,18.09
2023-09-30T10:21:13.637Z,17.80
2023-09-30T10:22:22.599Z,17.48
2023-09-30T10:23:27.294Z,17.44
2023-09-30T10:24:29.805Z,17.50
2023-09-30T10:25:36.973Z,17.58
2023-09-30T10:26:38.750Z,17.67
2023-09-30T10:27:40.396Z,17.69
2023-09-30T10:28:42.926Z,17.65
2023-09-30T10:29:44.518Z,17.67
2023-09-30T10:31:10.642Z,17.72
2023-09-30T10:32:12.272Z,18.06
2023-09-30T10:33:16.684Z,18.36
2023-09-30T10:34:22.353Z,18.49
2023-09-30T10:35:47.221Z,18.77
2023-09-30T10:36:49.885Z,19.10
2023-09-30T10:37:51.536Z,19.06
2023-09-30T10:38:53.100Z,18.57
2023-09-30T10:39:58.805Z,18.26
2023-09-30T10:41:01.954Z,18.31
2023-09-30T10:42:03.567Z,18.62
2023-09-30T10:43:05.216Z,18.80
2023-09-30T10:44:34.510Z,18.59
2023-09-30T10:45:45.966Z,18.04
2023-09-30T10:46:47.697Z,17.76
2023-09-30T10:47:49.406Z,18.00
2023-09-30T10:48:51.157Z,18.05
2023-09-30T10:49:53.742Z,17.83
2023-09-30T10:50:58.151Z,17.53
2023-09-30T10:52:01.001Z,17.71
2023-09-30T10:53:06.508Z,17.91
2023-09-30T10:54:08.693Z,18.06
2023-09-30T10:55:10.333Z,18.26
2023-09-30T10:56:14.107Z,18.27
2023-09-30T10:57:28.086Z,18.07
2023-09-30T10:58:45.632Z,17.97
2023-09-30T10:59:48.785Z,18.37
2023-09-30T11:00:55.710Z,18.50
2023-09-30T11:01:58.287Z,18.66
2023-09-30T11:03:03.027Z,18.58
2023-09-30T11:04:06.305Z,18.98
2023-09-30T11:05:11.615Z,19.33
2023-09-30T11:06:14.649Z,19.61
2023-09-30T11:07:24.098Z,18.57
2023-09-30T11:08:29.675Z,18.62
2023-09-30T11:09:34.949Z,18.83
2023-09-30T11:10:36.582Z,19.00
2023-09-30T11:11:40.732Z,19.34
2023-09-30T11:12:54.758Z,19.81
2023-09-30T11:13:56.410Z,19.75
2023-09-30T11:15:02.972Z,19.10
2023-09-30T11:16:05.507Z,19.65
2023-09-30T11:17:07.163Z,19.58
2023-09-30T11:18:16.043Z,19.75
2023-09-30T11:19:18.005Z,19.47
2023-09-30T11:20:20.104Z,19.40
2023-09-30T11:21:24.203Z,19.02
2023-09-30T11:22:26.115Z,19.90
2023-09-30T11:23:27.844Z,20.60
2023-09-30T11:24:29.731Z,20.61
2023-09-30T11:25:35.774Z,19.87
2023-09-30T11:26:40.269Z,19.59
2023-09-30T11:27:42.187Z,19.44
2023-09-30T11:28:46.209Z,19.21
2023-09-30T11:29:50.087Z,19.63
2023-09-30T11:30:56.167Z,19.64
2023-09-30T11:31:57.881Z,19.94
2023-09-30T11:32:59.903Z,20.37
2023-09-30T11:34:02.151Z,20.77
2023-09-30T11:35:04.560Z,20.85
2023-09-30T11:36:07.395Z,20.63
2023-09-30T11:37:09.059Z,20.92
2023-09-30T11:38:10.751Z,20.84
2023-09-30T11:39:23.013Z,19.92
2023-09-30T11:40:24.715Z,19.66
2023-09-30T11:41:34.409Z,19.34
2023-09-30T11:42:37.412Z,19.50
2023-09-30T11:43:39.110Z,19.52
2023-09-30T11:44:45.743Z,19.15
2023-09-30T11:45:47.394Z,19.13
2023-09-30T11:46:50.478Z,19.10
2023-09-30T11:47:52.148Z,18.69
2023-09-30T11:48:59.276Z,18.76
2023-09-30T11:50:01.139Z,18.84
2023-09-30T11:51:02.978Z,18.82
2023-09-30T11:52:06.445Z,19.01
2023-09-30T11:53:16.592Z,19.25
2023-09-30T11:54:18.220Z,19.08
2023-09-30T11:55:19.922Z,19.24
2023-09-30T11:56:21.701Z,19.09
2023-09-30T11:57:23.334Z,19.36
2023-09-30T11:58:27.705Z,19.31
2023-09-30T11:59:29.470Z,19.47
2023-09-30T12:00:31.189Z,19.17
2023-09-30T12:01:33.041Z,19.02
2023-09-30T12:02:34.730Z,19.09
2023-09-30T12:03:36.850Z,19.60
2023-09-30T12:04:39.444Z,19.98
2023-09-30T12:05:41.333Z,20.09
2023-09-30T12:06:43.032Z,19.92
2023-09-30T12:07:44.664Z,19.45
2023-09-30T12:08:46.295Z,19.43
2023-09-30T12:09:47.953Z,19.23
2023-09-30T12:10:49.813Z,18.77
2023-09-30T12:11:51.724Z,18.65
2023-09-30T12:12:56.399Z,18.36
2023-09-30T12:13:59.515Z,18.58
2023-09-30T12:15:03.044Z,18.92
2023-09-30T12:16:04.770Z,19.36
2023-09-30T12:17:06.662Z,19.73
2023-09-30T12:18:08.488Z,19.55
2023-09-30T12:19:10.177Z,19.65
2023-09-30T12:20:12.381Z,20.07
2023-09-30T12:21:14.599Z,19.53
2023-09-30T12:22:16.261Z,19.60
2023-09-30T12:23:17.867Z,19.75
2023-09-30T12:24:19.938Z,19.83
2023-09-30T12:25:21.568Z,19.70
2023-09-30T12:26:23.220Z,19.65
2023-09-30T12:27:24.867Z,19.68
2023-09-30T12:28:26.616Z,19.05
2023-09-30T12:29:29.602Z,19.02
2023-09-30T12:30:31.314Z,18.90
2023-09-30T12:31:46.135Z,18.97
2023-09-30T12:32:54.351Z,18.98
2023-09-30T12:33:56.143Z,19.47
2023-09-30T12:34:57.752Z,20.04
2023-09-30T12:36:00.493Z,20.19
2023-09-30T12:37:02.332Z,20.16
2023-09-30T12:38:04.234Z,20.29
2023-09-30T12:39:06.413Z,19.83
2023-09-30T12:40:09.900Z,20.36
2023-09-30T12:41:11.644Z,20.51
2023-09-30T12:42:13.270Z,19.96
2023-09-30T12:43:15.190Z,19.18
2023-09-30T12:44:16.794Z,18.96
2023-09-30T12:45:20.736Z,19.17
2023-09-30T12:46:22.385Z,19.26
2023-09-30T12:47:25.769Z,18.81
2023-09-30T12:48:27.554Z,19.06
2023-09-30T12:49:29.271Z,19.49
2023-09-30T12:50:31.057Z,20.21
2023-09-30T12:51:33.719Z,20.52
2023-09-30T12:52:39.446Z,21.04
2023-09-30T12:53:41.755Z,21.44
2023-09-30T12:54:43.588Z,21.13
2023-09-30T12:55:45.602Z,21.70
2023-09-30T12:56:50.930Z,21.97
2023-09-30T12:57:52.619Z,21.81
2023-09-30T12:58:54.963Z,21.73
2023-09-30T12:59:59.296Z,21.75
2023-09-30T13:01:19.702Z,22.08
2023-09-30T13:02:25.613Z,22.44
2023-09-30T13:03:29.594Z,22.42
2023-09-30T13:04:31.478Z,21.90
2023-09-30T13:05:33.215Z,21.99
2023-09-30T13:06:35.061Z,22.23
2023-09-30T13:07:36.646Z,21.85
2023-09-30T13:08:38.284Z,21.75
2023-09-30T13:09:43.469Z,22.03
2023-09-30T13:10:48.329Z,21.60
2023-09-30T13:11:50.530Z,21.77
2023-09-30T13:12:52.221Z,20.52
2023-09-30T13:13:53.963Z,20.74
2023-09-30T13:14:57.418Z,21.17
2023-09-30T13:15:59.228Z,21.17
2023-09-30T13:17:02.508Z,20.82
2023-09-30T13:18:05.064Z,20.91
2023-09-30T13:19:06.850Z,20.45
2023-09-30T13:20:09.505Z,20.14
2023-09-30T13:21:11.268Z,20.32
2023-09-30T13:22:18.264Z,20.31
2023-09-30T13:23:21.342Z,20.99
2023-09-30T13:24:23.349Z,20.81
2023-09-30T13:25:25.415Z,21.09
2023-09-30T13:26:27.244Z,21.15
2023-09-30T13:27:28.936Z,20.88